sensor_id;sensor_type;location;lat;lon;timestamp;pressure;altitude;pressure_sealevel;temperature;humidity
34328;BME280;20588;48.840;10.064;2023-09-19T00:00:20;96133.88;;;17.36;100.00
34328;BME280;20588;48.840;10.064;2023-09-19T00:02:53;96126.88;;;17.36;100.00
34328;BME280;20588;48.840;10.064;2023-09-19T00:05:19;96134.94;;;17.35;100.00
34328;BME280;20588;48.840;10.064;2023-09-19T00:07:50;96135.44;;;17.42;100.00
34328;BME280;20588;48.840;10.064;2023-09-19T00:10:22;96135.69;;;17.40;100.00
34328;BME280;20588;48.840;10.064;2023-09-19T00:12:51;96134.94;;;17.40;100.00
34328;BME280;20588;48.840;10.064;2023-09-19T00:15:18;96140.41;;;17.43;100.00
34328;BME280;20588;48.840;10.064;2023-09-19T00:17:44;96134.69;;;17.46;100.00
34328;BME280;20588;48.840;10.064;2023-09-19T00:20:11;96133.13;;;17.50;100.00
34328;BME280;20588;48.840;10.064;2023-09-19T00:22:42;96124.25;;;17.46;100.00
34328;BME280;20588;48.840;10.064;2023-09-19T00:25:09;96118.03;;;17.47;100.00
34328;BME280;20588;48.840;10.064;2023-09-19T00:27:36;96119.31;;;17.45;100.00
34328;BME280;20588;48.840;10.064;2023-09-19T00:30:08;96120.59;;;17.42;100.00
34328;BME280;20588;48.840;10.064;2023-09-19T00:32:40;96125.03;;;17.42;100.00
34328;BME280;20588;48.840;10.064;2023-09-19T00:35:07;96122.69;;;17.40;100.00
34328;BME280;20588;48.840;10.064;2023-09-19T00:37:36;96120.34;;;17.39;100.00
34328;BME280;20588;48.840;10.064;2023-09-19T00:40:04;96121.41;;;17.38;100.00
34328;BME280;20588;48.840;10.064;2023-09-19T00:42:40;96125.06;;;17.37;100.00
34328;BME280;20588;48.840;10.064;2023-09-19T00:45:11;96121.13;;;17.34;100.00
34328;BME280;20588;48.840;10.064;2023-09-19T00:47:45;96129.19;;;17.33;100.00
34328;BME280;20588;48.840;10.064;2023-09-19T00:50:19;96128.44;;;17.32;100.00
34328;BME280;20588;48.840;10.064;2023-09-19T00:52:50;96117.25;;;17.32;100.00
34328;BME280;20588;48.840;10.064;2023-09-19T00:55:18;96121.41;;;17.28;100.00
34328;BME280;20588;48.840;10.064;2023-09-19T00:57:47;96135.69;;;17.25;100.00
34328;BME280;20588;48.840;10.064;2023-09-19T01:00:15;96130.75;;;17.24;100.00
34328;BME280;20588;48.840;10.064;2023-09-19T01:02:42;96135.69;;;17.25;100.00
34328;BME280;20588;48.840;10.064;2023-09-19T01:05:09;96138.31;;;17.25;100.00
34328;BME280;20588;48.840;10.064;2023-09-19T01:07:35;96138.59;;;17.19;100.00
34328;BME280;20588;48.840;10.064;2023-09-19T01:10:06;96138.84;;;17.17;100.00
34328;BME280;20588;48.840;10.064;2023-09-19T01:15:45;96139.88;;;17.06;100.00
34328;BME280;20588;48.840;10.064;2023-09-19T01:18:43;96144.81;;;17.03;100.00
34328;BME280;20588;48.840;10.064;2023-09-19T01:21:49;96151.31;;;17.00;100.00
34328;BME280;20588;48.840;10.064;2023-09-19T01:24:54;96148.44;;;17.02;100.00
34328;BME280;20588;48.840;10.064;2023-09-19T01:30:44;96144.00;;;16.92;100.00
34328;BME280;20588;48.840;10.064;2023-09-19T01:33:11;96149.72;;;16.89;100.00
34328;BME280;20588;48.840;10.064;2023-09-19T01:35:38;96145.31;;;16.85;100.00
34328;BME280;20588;48.840;10.064;2023-09-19T01:38:05;96151.53;;;16.79;100.00
34328;BME280;20588;48.840;10.064;2023-09-19T01:40:43;96153.84;;;16.75;100.00
34328;BME280;20588;48.840;10.064;2023-09-19T01:43:26;96149.19;;;16.72;100.00
34328;BME280;20588;48.840;10.064;2023-09-19T01:46:04;96162.94;;;16.68;100.00
34328;BME280;20588;48.840;10.064;2023-09-19T01:51:46;96167.59;;;16.61;100.00
34328;BME280;20588;48.840;10.064;2023-09-19T01:54:23;96167.06;;;16.54;100.00
34328;BME280;20588;48.840;10.064;2023-09-19T01:57:04;96169.94;;;16.52;100.00
34328;BME280;20588;48.840;10.064;2023-09-19T02:02:21;96172.50;;;16.47;100.00
34328;BME280;20588;48.840;10.064;2023-09-19T02:04:49;96175.38;;;16.56;100.00
34328;BME280;20588;48.840;10.064;2023-09-19T02:07:16;96174.38;;;16.57;100.00
34328;BME280;20588;48.840;10.064;2023-09-19T02:09:42;96182.91;;;16.57;100.00
34328;BME280;20588;48.840;10.064;2023-09-19T02:12:09;96180.84;;;16.54;100.00
34328;BME280;20588;48.840;10.064;2023-09-19T02:14:36;96175.38;;;16.56;100.00
34328;BME280;20588;48.840;10.064;2023-09-19T02:17:02;96168.63;;;16.55;100.00
34328;BME280;20588;48.840;10.064;2023-09-19T02:19:33;96177.72;;;16.57;100.00
34328;BME280;20588;48.840;10.064;2023-09-19T02:22:00;96172.00;;;16.60;100.00
34328;BME280;20588;48.840;10.064;2023-09-19T02:24:29;96179.81;;;16.60;100.00
34328;BME280;20588;48.840;10.064;2023-09-19T02:26:55;96188.66;;;16.59;100.00
34328;BME280;20588;48.840;10.064;2023-09-19T02:29:21;96194.63;;;16.60;100.00
34328;BME280;20588;48.840;10.064;2023-09-19T02:31:48;96197.22;;;16.60;100.00
34328;BME280;20588;48.840;10.064;2023-09-19T02:34:14;96186.59;;;16.61;100.00
34328;BME280;20588;48.840;10.064;2023-09-19T02:36:42;96191.28;;;16.64;100.00
34328;BME280;20588;48.840;10.064;2023-09-19T02:39:10;96190.47;;;16.64;100.00
34328;BME280;20588;48.840;10.064;2023-09-19T02:41:37;96190.75;;;16.67;100.00
34328;BME280;20588;48.840;10.064;2023-09-19T02:44:03;96193.88;;;16.69;100.00
34328;BME280;20588;48.840;10.064;2023-09-19T02:46:34;96190.00;;;16.72;100.00
34328;BME280;20588;48.840;10.064;2023-09-19T02:49:02;96197.53;;;16.73;100.00
34328;BME280;20588;48.840;10.064;2023-09-19T02:51:31;96201.44;;;16.76;100.00
34328;BME280;20588;48.840;10.064;2023-09-19T02:53:59;96211.56;;;16.77;100.00
34328;BME280;20588;48.840;10.064;2023-09-19T02:56:25;96209.75;;;16.83;100.00
34328;BME280;20588;48.840;10.064;2023-09-19T02:58:51;96211.34;;;16.84;100.00
34328;BME280;20588;48.840;10.064;2023-09-19T03:01:17;96219.66;;;16.91;100.00
34328;BME280;20588;48.840;10.064;2023-09-19T03:03:44;96217.03;;;16.86;100.00
34328;BME280;20588;48.840;10.064;2023-09-19T03:06:11;96214.94;;;16.83;100.00
34328;BME280;20588;48.840;10.064;2023-09-19T03:08:39;96216.50;;;16.79;100.00
34328;BME280;20588;48.840;10.064;2023-09-19T03:11:07;96215.47;;;16.75;100.00
34328;BME280;20588;48.840;10.064;2023-09-19T03:13:37;96218.03;;;16.70;100.00
34328;BME280;20588;48.840;10.064;2023-09-19T03:16:04;96216.22;;;16.65;100.00
34328;BME280;20588;48.840;10.064;2023-09-19T03:18:36;96222.69;;;16.58;100.00
34328;BME280;20588;48.840;10.064;2023-09-19T03:21:02;96225.50;;;16.51;100.00
34328;BME280;20588;48.840;10.064;2023-09-19T03:23:29;96229.59;;;16.42;100.00
34328;BME280;20588;48.840;10.064;2023-09-19T03:25:55;96226.19;;;16.37;100.00
34328;BME280;20588;48.840;10.064;2023-09-19T03:28:22;96233.44;;;16.30;100.00
34328;BME280;20588;48.840;10.064;2023-09-19T03:31:02;96233.66;;;16.23;100.00
34328;BME280;20588;48.840;10.064;2023-09-19T03:33:28;96230.78;;;16.19;100.00
34328;BME280;20588;48.840;10.064;2023-09-19T03:35:57;96234.94;;;16.15;100.00
34328;BME280;20588;48.840;10.064;2023-09-19T03:38:27;96241.38;;;16.13;100.00
34328;BME280;20588;48.840;10.064;2023-09-19T03:40:54;96237.47;;;16.10;100.00
34328;BME280;20588;48.840;10.064;2023-09-19T03:43:21;96239.03;;;16.11;100.00
34328;BME280;20588;48.840;10.064;2023-09-19T03:45:47;96236.44;;;16.11;100.00
34328;BME280;20588;48.840;10.064;2023-09-19T03:48:13;96236.97;;;16.13;100.00
34328;BME280;20588;48.840;10.064;2023-09-19T03:50:39;96234.13;;;16.15;100.00
34328;BME280;20588;48.840;10.064;2023-09-19T03:53:05;96226.34;;;16.15;100.00
34328;BME280;20588;48.840;10.064;2023-09-19T03:55:34;96227.38;;;16.14;100.00
34328;BME280;20588;48.840;10.064;2023-09-19T03:58:02;96231.53;;;16.15;100.00
34328;BME280;20588;48.840;10.064;2023-09-19T04:00:28;96227.09;;;16.10;100.00
34328;BME280;20588;48.840;10.064;2023-09-19T04:02:55;96228.41;;;16.13;100.00
34328;BME280;20588;48.840;10.064;2023-09-19T04:05:23;96236.69;;;16.10;100.00
34328;BME280;20588;48.840;10.064;2023-09-19T04:07:49;96231.25;;;16.11;100.00
34328;BME280;20588;48.840;10.064;2023-09-19T04:10:16;96235.44;;;16.12;100.00
34328;BME280;20588;48.840;10.064;2023-09-19T04:12:56;96219.59;;;16.14;100.00
34328;BME280;20588;48.840;10.064;2023-09-19T04:15:23;96225.59;;;16.14;100.00
34328;BME280;20588;48.840;10.064;2023-09-19T04:17:50;96226.09;;;16.16;100.00
34328;BME280;20588;48.840;10.064;2023-09-19T04:20:17;96235.97;;;16.19;100.00
34328;BME280;20588;48.840;10.064;2023-09-19T04:22:45;96234.44;;;16.18;100.00
34328;BME280;20588;48.840;10.064;2023-09-19T04:25:12;96246.13;;;16.21;100.00
34328;BME280;20588;48.840;10.064;2023-09-19T04:27:38;96242.25;;;16.23;100.00
34328;BME280;20588;48.840;10.064;2023-09-19T04:30:07;96243.31;;;16.27;100.00
34328;BME280;20588;48.840;10.064;2023-09-19T04:32:36;96239.16;;;16.27;100.00
34328;BME280;20588;48.840;10.064;2023-09-19T04:35:09;96238.41;;;16.31;100.00
34328;BME280;20588;48.840;10.064;2023-09-19T04:37:40;96243.09;;;16.34;100.00
34328;BME280;20588;48.840;10.064;2023-09-19T04:40:07;96239.94;;;16.32;100.00
34328;BME280;20588;48.840;10.064;2023-09-19T04:42:39;96238.91;;;16.33;100.00
34328;BME280;20588;48.840;10.064;2023-09-19T04:45:06;96241.00;;;16.31;100.00
34328;BME280;20588;48.840;10.064;2023-09-19T04:47:32;96251.38;;;16.31;100.00
34328;BME280;20588;48.840;10.064;2023-09-19T04:49:58;96252.66;;;16.28;100.00
34328;BME280;20588;48.840;10.064;2023-09-19T04:52:25;96256.81;;;16.30;100.00
34328;BME280;20588;48.840;10.064;2023-09-19T04:54:51;96264.63;;;16.30;100.00
34328;BME280;20588;48.840;10.064;2023-09-19T04:57:17;96263.03;;;16.28;100.00
34328;BME280;20588;48.840;10.064;2023-09-19T04:59:43;96263.03;;;16.28;100.00
34328;BME280;20588;48.840;10.064;2023-09-19T05:02:09;96261.75;;;16.31;100.00
34328;BME280;20588;48.840;10.064;2023-09-19T05:04:35;96259.94;;;16.32;100.00
34328;BME280;20588;48.840;10.064;2023-09-19T05:07:01;96274.00;;;16.36;100.00
34328;BME280;20588;48.840;10.064;2023-09-19T05:09:29;96272.00;;;16.48;100.00
34328;BME280;20588;48.840;10.064;2023-09-19T05:11:55;96279.59;;;16.59;100.00
34328;BME280;20588;48.840;10.064;2023-09-19T05:14:22;96280.94;;;16.77;100.00
34328;BME280;20588;48.840;10.064;2023-09-19T05:16:49;96286.28;;;17.17;100.00
34328;BME280;20588;48.840;10.064;2023-09-19T05:19:15;96287.09;;;17.27;100.00
34328;BME280;20588;48.840;10.064;2023-09-19T05:21:41;96296.31;;;17.85;100.00
34328;BME280;20588;48.840;10.064;2023-09-19T05:24:08;96284.59;;;17.98;100.00
34328;BME280;20588;48.840;10.064;2023-09-19T05:26:34;96294.72;;;17.89;100.00
34328;BME280;20588;48.840;10.064;2023-09-19T05:29:00;96289.00;;;17.82;100.00
34328;BME280;20588;48.840;10.064;2023-09-19T05:31:29;96293.97;;;17.73;100.00
34328;BME280;20588;48.840;10.064;2023-09-19T05:33:55;96303.34;;;17.64;100.00
34328;BME280;20588;48.840;10.064;2023-09-19T05:36:21;96306.19;;;17.73;100.00
34328;BME280;20588;48.840;10.064;2023-09-19T05:38:47;96298.63;;;17.66;100.00
34328;BME280;20588;48.840;10.064;2023-09-19T05:41:15;96300.47;;;17.61;100.00
34328;BME280;20588;48.840;10.064;2023-09-19T05:43:41;96297.81;;;17.51;100.00
34328;BME280;20588;48.840;10.064;2023-09-19T05:46:08;96299.13;;;17.43;100.00
34328;BME280;20588;48.840;10.064;2023-09-19T05:48:34;96306.38;;;17.41;100.00
34328;BME280;20588;48.840;10.064;2023-09-19T05:51:00;96305.31;;;17.37;100.00
34328;BME280;20588;48.840;10.064;2023-09-19T05:53:27;96308.44;;;17.34;100.00
34328;BME280;20588;48.840;10.064;2023-09-19T05:55:53;96313.63;;;17.34;100.00
34328;BME280;20588;48.840;10.064;2023-09-19T05:58:19;96311.81;;;17.35;100.00
34328;BME280;20588;48.840;10.064;2023-09-19T06:00:46;96320.41;;;17.40;100.00
34328;BME280;20588;48.840;10.064;2023-09-19T06:03:14;96314.22;;;17.51;100.00
34328;BME280;20588;48.840;10.064;2023-09-19T06:05:40;96320.50;;;17.60;100.00
34328;BME280;20588;48.840;10.064;2023-09-19T06:08:07;96318.16;;;17.64;100.00
34328;BME280;20588;48.840;10.064;2023-09-19T06:10:34;96324.66;;;17.61;100.00
34328;BME280;20588;48.840;10.064;2023-09-19T06:13:03;96328.56;;;17.59;100.00
34328;BME280;20588;48.840;10.064;2023-09-19T06:15:35;96341.56;;;17.54;100.00
34328;BME280;20588;48.840;10.064;2023-09-19T06:18:02;96336.09;;;17.50;100.00
34328;BME280;20588;48.840;10.064;2023-09-19T06:20:31;96339.72;;;17.49;100.00
34328;BME280;20588;48.840;10.064;2023-09-19T06:22:58;96341.47;;;17.39;100.00
34328;BME280;20588;48.840;10.064;2023-09-19T06:25:25;96347.47;;;17.39;100.00
34328;BME280;20588;48.840;10.064;2023-09-19T06:27:54;96348.75;;;17.32;100.00
34328;BME280;20588;48.840;10.064;2023-09-19T06:30:22;96348.22;;;17.30;100.00
34328;BME280;20588;48.840;10.064;2023-09-19T06:32:55;96372.69;;;17.29;100.00
34328;BME280;20588;48.840;10.064;2023-09-19T06:35:21;96361.75;;;17.22;100.00
34328;BME280;20588;48.840;10.064;2023-09-19T06:37:47;96368.22;;;17.19;100.00
34328;BME280;20588;48.840;10.064;2023-09-19T06:40:14;96358.34;;;17.21;100.00
34328;BME280;20588;48.840;10.064;2023-09-19T06:42:44;96363.06;;;17.29;100.00
34328;BME280;20588;48.840;10.064;2023-09-19T06:45:12;96366.44;;;17.25;100.00
34328;BME280;20588;48.840;10.064;2023-09-19T06:47:39;96363.84;;;17.25;100.00
34328;BME280;20588;48.840;10.064;2023-09-19T06:50:06;96371.13;;;17.28;100.00
34328;BME280;20588;48.840;10.064;2023-09-19T06:52:35;96376.59;;;17.26;100.00
34328;BME280;20588;48.840;10.064;2023-09-19T06:55:01;96372.41;;;17.20;100.00
34328;BME280;20588;48.840;10.064;2023-09-19T06:57:29;96376.78;;;17.15;100.00
34328;BME280;20588;48.840;10.064;2023-09-19T06:59:56;96387.94;;;17.10;100.00
34328;BME280;20588;48.840;10.064;2023-09-19T07:02:22;96401.72;;;17.06;100.00
34328;BME280;20588;48.840;10.064;2023-09-19T07:04:48;96415.78;;;17.10;100.00
34328;BME280;20588;48.840;10.064;2023-09-19T07:07:15;96423.22;;;16.91;100.00
34328;BME280;20588;48.840;10.064;2023-09-19T07:09:42;96420.47;;;16.66;100.00
34328;BME280;20588;48.840;10.064;2023-09-19T07:12:08;96427.59;;;16.44;100.00
34328;BME280;20588;48.840;10.064;2023-09-19T07:14:34;96424.34;;;16.32;100.00
34328;BME280;20588;48.840;10.064;2023-09-19T07:17:00;96436.78;;;16.30;100.00
34328;BME280;20588;48.840;10.064;2023-09-19T07:19:27;96437.03;;;16.28;100.00
34328;BME280;20588;48.840;10.064;2023-09-19T07:21:57;96445.91;;;16.33;100.00
34328;BME280;20588;48.840;10.064;2023-09-19T07:24:25;96439.13;;;16.27;100.00
34328;BME280;20588;48.840;10.064;2023-09-19T07:26:53;96448.53;;;16.33;100.00
34328;BME280;20588;48.840;10.064;2023-09-19T07:29:19;96448.16;;;16.24;100.00
34328;BME280;20588;48.840;10.064;2023-09-19T07:31:45;96449.69;;;16.20;100.00
34328;BME280;20588;48.840;10.064;2023-09-19T07:34:12;96443.72;;;16.19;100.00
34328;BME280;20588;48.840;10.064;2023-09-19T07:36:39;96458.84;;;16.27;100.00
34328;BME280;20588;48.840;10.064;2023-09-19T07:39:07;96459.41;;;16.30;100.00
34328;BME280;20588;48.840;10.064;2023-09-19T07:41:33;96457.66;;;16.40;100.00
34328;BME280;20588;48.840;10.064;2023-09-19T07:44:00;96460.16;;;16.57;100.00
34328;BME280;20588;48.840;10.064;2023-09-19T07:46:26;96459.47;;;16.71;100.00
34328;BME280;20588;48.840;10.064;2023-09-19T07:48:52;96443.53;;;16.94;100.00
34328;BME280;20588;48.840;10.064;2023-09-19T07:51:18;96449.91;;;17.18;100.00
34328;BME280;20588;48.840;10.064;2023-09-19T07:53:45;96448.44;;;17.42;100.00
34328;BME280;20588;48.840;10.064;2023-09-19T07:56:11;96447.22;;;17.60;100.00
34328;BME280;20588;48.840;10.064;2023-09-19T07:58:39;96453.06;;;17.87;100.00
34328;BME280;20588;48.840;10.064;2023-09-19T08:01:08;96455.16;;;18.00;100.00
34328;BME280;20588;48.840;10.064;2023-09-19T08:03:35;96461.47;;;18.29;100.00
34328;BME280;20588;48.840;10.064;2023-09-19T08:06:03;96454.72;;;18.38;96.85
34328;BME280;20588;48.840;10.064;2023-09-19T08:08:30;96459.41;;;18.71;96.64
34328;BME280;20588;48.840;10.064;2023-09-19T08:10:56;96458.97;;;20.50;89.52
34328;BME280;20588;48.840;10.064;2023-09-19T08:13:26;96464.81;;;23.68;74.10
34328;BME280;20588;48.840;10.064;2023-09-19T08:15:53;96464.63;;;26.27;58.25
34328;BME280;20588;48.840;10.064;2023-09-19T08:18:19;96465.81;;;26.90;53.51
34328;BME280;20588;48.840;10.064;2023-09-19T08:20:51;96471.88;;;26.99;50.53
34328;BME280;20588;48.840;10.064;2023-09-19T08:23:18;96470.47;;;26.93;50.15
34328;BME280;20588;48.840;10.064;2023-09-19T08:25:47;96473.47;;;26.23;52.41
34328;BME280;20588;48.840;10.064;2023-09-19T08:28:13;96473.47;;;26.31;52.36
34328;BME280;20588;48.840;10.064;2023-09-19T08:30:47;96479.66;;;26.10;51.45
34328;BME280;20588;48.840;10.064;2023-09-19T08:33:13;96490.81;;;26.07;53.59
34328;BME280;20588;48.840;10.064;2023-09-19T08:35:41;96489.56;;;25.96;54.10
34328;BME280;20588;48.840;10.064;2023-09-19T08:38:08;96486.66;;;26.48;53.43
34328;BME280;20588;48.840;10.064;2023-09-19T08:40:38;96489.25;;;27.54;50.53
34328;BME280;20588;48.840;10.064;2023-09-19T08:43:05;96479.59;;;28.58;49.28
34328;BME280;20588;48.840;10.064;2023-09-19T08:45:33;96483.78;;;29.60;45.51
34328;BME280;20588;48.840;10.064;2023-09-19T08:51:07;96486.19;;;31.51;42.30
34328;BME280;20588;48.840;10.064;2023-09-19T08:53:53;96484.13;;;31.44;40.38
34328;BME280;20588;48.840;10.064;2023-09-19T08:56:21;96486.88;;;31.32;41.79
34328;BME280;20588;48.840;10.064;2023-09-19T08:58:55;96480.59;;;30.82;42.15
34328;BME280;20588;48.840;10.064;2023-09-19T09:01:26;96477.38;;;30.21;43.34
34328;BME280;20588;48.840;10.064;2023-09-19T09:03:54;96476.63;;;29.48;44.97
34328;BME280;20588;48.840;10.064;2023-09-19T09:06:21;96481.00;;;29.20;45.33
34328;BME280;20588;48.840;10.064;2023-09-19T09:08:47;96485.97;;;28.57;46.98
34328;BME280;20588;48.840;10.064;2023-09-19T09:11:15;96476.94;;;27.96;47.71
34328;BME280;20588;48.840;10.064;2023-09-19T09:13:43;96483.75;;;27.68;49.22
34328;BME280;20588;48.840;10.064;2023-09-19T09:16:10;96485.31;;;27.23;50.32
34328;BME280;20588;48.840;10.064;2023-09-19T09:18:37;96484.50;;;26.68;51.31
34328;BME280;20588;48.840;10.064;2023-09-19T09:21:03;96486.78;;;26.01;52.54
34328;BME280;20588;48.840;10.064;2023-09-19T09:23:32;96488.91;;;25.12;55.47
34328;BME280;20588;48.840;10.064;2023-09-19T09:25:59;96494.97;;;24.46;58.45
34328;BME280;20588;48.840;10.064;2023-09-19T09:28:29;96502.31;;;23.87;60.71
34328;BME280;20588;48.840;10.064;2023-09-19T09:30:56;96492.78;;;23.64;60.59
34328;BME280;20588;48.840;10.064;2023-09-19T09:33:24;96502.28;;;23.33;63.22
34328;BME280;20588;48.840;10.064;2023-09-19T09:35:58;96499.00;;;23.08;63.84
34328;BME280;20588;48.840;10.064;2023-09-19T09:38:27;96501.56;;;22.81;64.13
34328;BME280;20588;48.840;10.064;2023-09-19T09:40:59;96502.91;;;22.65;66.53
34328;BME280;20588;48.840;10.064;2023-09-19T09:43:39;96504.16;;;22.49;67.18
34328;BME280;20588;48.840;10.064;2023-09-19T09:46:14;96501.09;;;22.42;68.58
34328;BME280;20588;48.840;10.064;2023-09-19T09:49:04;96503.16;;;22.45;67.03
34328;BME280;20588;48.840;10.064;2023-09-19T09:51:59;96496.84;;;22.65;66.80
34328;BME280;20588;48.840;10.064;2023-09-19T09:55:00;96490.19;;;22.72;65.74
34328;BME280;20588;48.840;10.064;2023-09-19T09:57:31;96486.16;;;22.61;66.41
34328;BME280;20588;48.840;10.064;2023-09-19T09:59:59;96500.34;;;22.60;65.41
34328;BME280;20588;48.840;10.064;2023-09-19T10:02:46;96496.56;;;22.98;66.01
34328;BME280;20588;48.840;10.064;2023-09-19T10:05:20;96502.19;;;23.92;63.06
34328;BME280;20588;48.840;10.064;2023-09-19T10:07:50;96500.44;;;24.72;58.55
34328;BME280;20588;48.840;10.064;2023-09-19T10:10:35;96496.09;;;25.20;55.88
34328;BME280;20588;48.840;10.064;2023-09-19T10:13:20;96496.88;;;25.60;54.50
34328;BME280;20588;48.840;10.064;2023-09-19T10:15:50;96490.75;;;25.73;53.85
34328;BME280;20588;48.840;10.064;2023-09-19T10:18:22;96499.31;;;25.48;52.83
34328;BME280;20588;48.840;10.064;2023-09-19T10:20:49;96493.59;;;25.15;54.42
34328;BME280;20588;48.840;10.064;2023-09-19T10:23:19;96499.16;;;25.14;53.48
34328;BME280;20588;48.840;10.064;2023-09-19T10:25:49;96479.84;;;25.66;53.42
34328;BME280;20588;48.840;10.064;2023-09-19T10:28:18;96495.69;;;26.48;50.92
34328;BME280;20588;48.840;10.064;2023-09-19T10:30:49;96498.72;;;27.26;49.45
34328;BME280;20588;48.840;10.064;2023-09-19T10:33:26;96490.38;;;28.32;46.92
34328;BME280;20588;48.840;10.064;2023-09-19T10:35:52;96489.50;;;28.81;45.52
34328;BME280;20588;48.840;10.064;2023-09-19T10:38:24;96487.41;;;29.19;45.49
34328;BME280;20588;48.840;10.064;2023-09-19T10:40:52;96492.22;;;29.74;44.75
34328;BME280;20588;48.840;10.064;2023-09-19T10:43:20;96481.44;;;30.19;44.66
34328;BME280;20588;48.840;10.064;2023-09-19T10:45:48;96491.94;;;30.39;43.56
34328;BME280;20588;48.840;10.064;2023-09-19T10:48:16;96481.56;;;30.22;41.84
34328;BME280;20588;48.840;10.064;2023-09-19T10:51:07;96489.69;;;29.65;42.89
34328;BME280;20588;48.840;10.064;2023-09-19T10:53:43;96497.53;;;28.73;45.84
34328;BME280;20588;48.840;10.064;2023-09-19T10:56:58;96493.41;;;27.64;45.43
34328;BME280;20588;48.840;10.064;2023-09-19T10:59:13;96485.94;;;27.20;47.61
34328;BME280;20588;48.840;10.064;2023-09-19T11:04:29;96491.00;;;26.62;48.59
34328;BME280;20588;48.840;10.064;2023-09-19T11:15:02;96487.84;;;25.44;50.18
34328;BME280;20588;48.840;10.064;2023-09-19T11:17:37;96477.44;;;25.95;50.38
34328;BME280;20588;48.840;10.064;2023-09-19T11:30:38;96469.13;;;29.74;41.33
34328;BME280;20588;48.840;10.064;2023-09-19T11:36:11;96465.66;;;29.86;40.48
34328;BME280;20588;48.840;10.064;2023-09-19T11:43:49;96462.78;;;29.31;39.46
34328;BME280;20588;48.840;10.064;2023-09-19T11:46:17;96459.38;;;29.54;39.26
34328;BME280;20588;48.840;10.064;2023-09-19T11:48:48;96451.84;;;29.93;38.37
34328;BME280;20588;48.840;10.064;2023-09-19T11:51:24;96456.38;;;29.92;37.74
34328;BME280;20588;48.840;10.064;2023-09-19T11:53:57;96460.56;;;29.93;37.34
34328;BME280;20588;48.840;10.064;2023-09-19T11:56:26;96446.31;;;29.73;37.75
34328;BME280;20588;48.840;10.064;2023-09-19T11:58:58;96450.63;;;29.30;38.19
34328;BME280;20588;48.840;10.064;2023-09-19T12:01:33;96447.19;;;29.29;37.57
34328;BME280;20588;48.840;10.064;2023-09-19T12:04:02;96443.66;;;29.49;38.18
34328;BME280;20588;48.840;10.064;2023-09-19T12:06:31;96440.56;;;29.59;37.15
34328;BME280;20588;48.840;10.064;2023-09-19T12:08:58;96433.69;;;29.83;36.26
34328;BME280;20588;48.840;10.064;2023-09-19T12:11:30;96435.94;;;29.68;36.55
34328;BME280;20588;48.840;10.064;2023-09-19T12:13:59;96430.38;;;29.86;36.31
34328;BME280;20588;48.840;10.064;2023-09-19T12:16:26;96428.09;;;30.12;36.00
34328;BME280;20588;48.840;10.064;2023-09-19T12:18:57;96420.53;;;30.38;36.77
34328;BME280;20588;48.840;10.064;2023-09-19T12:21:29;96425.22;;;30.56;35.90
34328;BME280;20588;48.840;10.064;2023-09-19T12:24:07;96418.25;;;30.67;36.35
34328;BME280;20588;48.840;10.064;2023-09-19T12:26:46;96418.78;;;30.57;35.93
34328;BME280;20588;48.840;10.064;2023-09-19T12:29:20;96417.41;;;30.36;36.15
34328;BME280;20588;48.840;10.064;2023-09-19T12:31:53;96415.59;;;30.24;35.68
34328;BME280;20588;48.840;10.064;2023-09-19T12:34:30;96409.00;;;30.06;36.07
34328;BME280;20588;48.840;10.064;2023-09-19T12:37:11;96410.09;;;29.65;36.74
34328;BME280;20588;48.840;10.064;2023-09-19T12:39:43;96407.75;;;29.64;37.20
34328;BME280;20588;48.840;10.064;2023-09-19T12:42:10;96406.41;;;29.70;37.37
34328;BME280;20588;48.840;10.064;2023-09-19T12:44:42;96404.63;;;29.62;37.50
34328;BME280;20588;48.840;10.064;2023-09-19T12:47:17;96407.56;;;29.97;37.59
34328;BME280;20588;48.840;10.064;2023-09-19T12:52:48;96420.81;;;30.21;36.78
34328;BME280;20588;48.840;10.064;2023-09-19T12:55:31;96404.59;;;29.86;37.46
34328;BME280;20588;48.840;10.064;2023-09-19T12:58:12;96413.28;;;29.35;37.94
34328;BME280;20588;48.840;10.064;2023-09-19T13:00:41;96401.09;;;29.22;38.19
34328;BME280;20588;48.840;10.064;2023-09-19T13:03:11;96401.75;;;29.31;38.85
34328;BME280;20588;48.840;10.064;2023-09-19T13:05:59;96398.88;;;29.60;39.36
34328;BME280;20588;48.840;10.064;2023-09-19T13:08:34;96402.97;;;29.82;38.03
34328;BME280;20588;48.840;10.064;2023-09-19T13:13:43;96399.00;;;29.51;38.13
34328;BME280;20588;48.840;10.064;2023-09-19T13:16:10;96397.88;;;29.04;38.07
34328;BME280;20588;48.840;10.064;2023-09-19T13:18:52;96390.75;;;28.84;38.30
34328;BME280;20588;48.840;10.064;2023-09-19T13:21:35;96395.88;;;28.57;38.71
34328;BME280;20588;48.840;10.064;2023-09-19T13:24:22;96387.50;;;28.34;38.40
34328;BME280;20588;48.840;10.064;2023-09-19T13:26:48;96395.63;;;27.96;38.79
34328;BME280;20588;48.840;10.064;2023-09-19T13:29:15;96395.22;;;27.65;39.87
34328;BME280;20588;48.840;10.064;2023-09-19T13:31:50;96394.81;;;27.55;40.99
34328;BME280;20588;48.840;10.064;2023-09-19T13:34:17;96383.78;;;27.53;39.65
34328;BME280;20588;48.840;10.064;2023-09-19T13:36:43;96388.03;;;27.45;40.59
34328;BME280;20588;48.840;10.064;2023-09-19T13:39:10;96382.66;;;27.54;41.07
34328;BME280;20588;48.840;10.064;2023-09-19T13:41:38;96391.41;;;27.75;41.54
34328;BME280;20588;48.840;10.064;2023-09-19T13:44:05;96386.81;;;27.84;41.53
34328;BME280;20588;48.840;10.064;2023-09-19T13:46:32;96390.09;;;27.89;41.33